Time;durP1;ratioP1;P1;durP2;ratioP2;P2;SDS_P1;SDS_P2;PMS_P1;PMS_P2;Temp;Humidity;BMP_temperature;BMP_pressure;BME280_temperature;BME280_humidity;BME280_pressure;Samples;Min_cycle;Max_cycle;Signal;HPM_P1;HPM_P2
2022/11/29 00:00:27;;;;;;;52.45;18.15;;;;;;;;;;1048198;28;20005;-76
2022/11/29 00:00:58;;;;;;;53.33;21.42;;;;;;;;;;1045497;28;20025;-76
2022/11/29 00:01:29;;;;;;;49.47;19.33;;;;;;;;;;1046979;28;20021;-76
2022/11/29 00:02:00;;;;;;;53.60;20.58;;;;;;;;;;1045891;28;20021;-76
2022/11/29 00:02:31;;;;;;;56.80;21.60;;;;;;;;;;1048632;28;20001;-76
2022/11/29 00:03:01;;;;;;;46.67;20.35;;;;;;;;;;1047488;28;20021;-76
2022/11/29 00:03:32;;;;;;;46.13;19.33;;;;;;;;;;1047548;28;20032;-76
2022/11/29 00:04:03;;;;;;;48.20;18.48;;;;;;;;;;1043150;28;20021;-76
2022/11/29 00:04:33;;;;;;;48.67;20.63;;;;;;;;;;1044163;28;20029;-76
2022/11/29 00:05:04;;;;;;;50.15;21.75;;;;;;;;;;1044112;28;20089;-76
2022/11/29 00:05:35;;;;;;;59.22;20.75;;;;;;;;;;1042116;28;20099;-76
2022/11/29 00:06:07;;;;;;;66.88;22.90;;;;;;;;;;1042557;28;20056;-76
2022/11/29 00:06:38;;;;;;;55.85;22.85;;;;;;;;;;1041545;28;20017;-76
2022/11/29 00:07:08;;;;;;;52.83;21.25;;;;;;;;;;1038863;28;20033;-76
2022/11/29 00:07:39;;;;;;;46.92;19.75;;;;;;;;;;1040001;28;20032;-76
2022/11/29 00:08:09;;;;;;;51.80;21.65;;;;;;;;;;1038077;28;20022;-76
2022/11/29 00:08:40;;;;;;;51.65;19.38;;;;;;;;;;1042763;28;20030;-76
2022/11/29 00:09:11;;;;;;;55.08;21.65;;;;;;;;;;1049025;28;20054;-76
2022/11/29 00:09:42;;;;;;;55.00;21.08;;;;;;;;;;1046008;28;20012;-76
2022/11/29 00:10:13;;;;;;;46.25;19.05;;;;;;;;;;1044452;28;20055;-76
2022/11/29 00:10:43;;;;;;;62.15;23.88;;;;;;;;;;1047455;28;20043;-76
2022/11/29 00:12:10;;;;;;;59.72;23.05;;;;;;;;;;1043553;28;20029;-76
2022/11/29 00:12:11;;;;;;;66.68;20.65;;;;;;;;;;1045771;28;20017;-76
2022/11/29 00:12:42;;;;;;;44.90;19.98;;;;;;;;;;1044662;28;20465;-76
2022/11/29 00:13:12;;;;;;;49.60;22.10;;;;;;;;;;1045658;28;20025;-76
2022/11/29 00:13:43;;;;;;;60.97;23.42;;;;;;;;;;1043718;28;20024;-76
2022/11/29 00:14:16;;;;;;;47.08;22.08;;;;;;;;;;1046279;28;20052;-76
2022/11/29 00:14:47;;;;;;;61.25;23.33;;;;;;;;;;1040814;28;20025;-76
2022/11/29 00:15:17;;;;;;;52.13;22.45;;;;;;;;;;1037745;28;20025;-76
2022/11/29 00:15:48;;;;;;;53.10;22.00;;;;;;;;;;1043956;28;20464;-76
2022/11/29 00:16:18;;;;;;;58.28;22.90;;;;;;;;;;1040306;28;20820;-76
2022/11/29 00:16:50;;;;;;;44.13;20.95;;;;;;;;;;1040808;28;20088;-76
2022/11/29 00:17:21;;;;;;;53.28;22.90;;;;;;;;;;1044030;28;20025;-76
2022/11/29 00:17:51;;;;;;;57.05;21.48;;;;;;;;;;1039382;28;20482;-76
2022/11/29 00:18:22;;;;;;;51.70;21.02;;;;;;;;;;1042255;28;20027;-76
2022/11/29 00:18:52;;;;;;;48.00;23.88;;;;;;;;;;1042040;28;20029;-76
2022/11/29 00:19:23;;;;;;;53.05;21.48;;;;;;;;;;1045853;28;20018;-76
2022/11/29 00:19:53;;;;;;;45.63;18.10;;;;;;;;;;1037992;28;20188;-76
2022/11/29 00:20:24;;;;;;;44.33;21.23;;;;;;;;;;1037883;28;20017;-77
2022/11/29 00:20:54;;;;;;;52.40;20.88;;;;;;;;;;1037666;28;20151;-77
2022/11/29 00:21:25;;;;;;;51.80;20.90;;;;;;;;;;1042159;28;20022;-77
2022/11/29 00:21:56;;;;;;;48.60;22.00;;;;;;;;;;1042415;28;20506;-77
2022/11/29 00:22:27;;;;;;;43.05;20.23;;;;;;;;;;1037805;28;20071;-77
2022/11/29 00:22:57;;;;;;;52.40;21.17;;;;;;;;;;1040602;28;20025;-77
2022/11/29 00:23:28;;;;;;;45.95;20.10;;;;;;;;;;1043657;28;20022;-77
2022/11/29 00:23:58;;;;;;;46.15;19.52;;;;;;;;;;1037717;28;20032;-77
2022/11/29 00:24:31;;;;;;;43.03;17.83;;;;;;;;;;1044129;28;20025;-77
2022/11/29 00:25:02;;;;;;;45.45;19.10;;;;;;;;;;1040202;28;20021;-77
2022/11/29 00:25:33;;;;;;;51.50;21.63;;;;;;;;;;1042579;28;20017;-77
2022/11/29 00:26:07;;;;;;;44.05;21.90;;;;;;;;;;1035605;28;20022;-77
2022/11/29 00:26:37;;;;;;;59.10;20.17;;;;;;;;;;1034696;28;20034;-77
2022/11/29 00:27:08;;;;;;;45.95;19.95;;;;;;;;;;1040885;28;20087;-77
2022/11/29 00:27:38;;;;;;;44.97;19.90;;;;;;;;;;1040935;28;20002;-77
2022/11/29 00:28:09;;;;;;;58.15;21.27;;;;;;;;;;1041169;28;20032;-77
2022/11/29 00:28:39;;;;;;;45.55;20.00;;;;;;;;;;1038223;28;20025;-77
2022/11/29 00:29:11;;;;;;;56.65;21.25;;;;;;;;;;1041471;28;20428;-77
2022/11/29 00:29:42;;;;;;;47.50;20.85;;;;;;;;;;1045238;28;20033;-77
2022/11/29 00:30:13;;;;;;;59.38;20.48;;;;;;;;;;1041710;28;20060;-77
2022/11/29 00:30:43;;;;;;;52.40;21.55;;;;;;;;;;1043106;28;20053;-77
2022/11/29 00:31:18;;;;;;;45.20;18.98;;;;;;;;;;1037968;28;20493;-77
2022/11/29 00:31:48;;;;;;;54.00;20.05;;;;;;;;;;1040335;28;21156;-77
2022/11/29 00:32:19;;;;;;;46.42;19.92;;;;;;;;;;1040913;28;20594;-77
2022/11/29 00:32:49;;;;;;;52.65;19.75;;;;;;;;;;1037914;28;20057;-77
2022/11/29 00:33:20;;;;;;;52.40;20.77;;;;;;;;;;1037702;28;20051;-77
2022/11/29 00:33:51;;;;;;;48.97;19.80;;;;;;;;;;1042169;28;20026;-77
2022/11/29 00:34:21;;;;;;;52.75;19.67;;;;;;;;;;1048828;28;20040;-77
2022/11/29 00:34:52;;;;;;;51.30;21.48;;;;;;;;;;1048979;28;20025;-77
2022/11/29 00:35:23;;;;;;;50.10;20.13;;;;;;;;;;1045439;28;20137;-77
2022/11/29 00:35:53;;;;;;;47.40;20.30;;;;;;;;;;1044146;28;20025;-77
2022/11/29 00:36:24;;;;;;;48.78;20.15;;;;;;;;;;1044126;28;20090;-77
2022/11/29 00:36:55;;;;;;;54.15;19.17;;;;;;;;;;1044072;28;20021;-76
2022/11/29 00:37:25;;;;;;;46.80;18.58;;;;;;;;;;1048041;28;20024;-76
2022/11/29 00:37:56;;;;;;;65.88;21.70;;;;;;;;;;1040383;28;20143;-76
2022/11/29 00:38:26;;;;;;;52.78;20.38;;;;;;;;;;1042859;28;20032;-76
2022/11/29 00:38:57;;;;;;;41.30;17.67;;;;;;;;;;1039661;28;20017;-76
2022/11/29 00:39:28;;;;;;;50.58;20.67;;;;;;;;;;1043164;28;20107;-76
2022/11/29 00:39:58;;;;;;;50.22;19.88;;;;;;;;;;1040281;28;20021;-76
2022/11/29 00:40:29;;;;;;;50.90;22.75;;;;;;;;;;1039165;28;20033;-76
2022/11/29 00:40:59;;;;;;;52.30;22.23;;;;;;;;;;1038892;28;20029;-76
2022/11/29 00:41:30;;;;;;;47.20;20.73;;;;;;;;;;1043850;28;20018;-76
2022/11/29 00:42:01;;;;;;;45.42;20.35;;;;;;;;;;1044011;28;20438;-76
2022/11/29 00:42:31;;;;;;;51.47;20.52;;;;;;;;;;1047906;28;20044;-76
2022/11/29 00:43:02;;;;;;;53.22;20.50;;;;;;;;;;1043863;28;20103;-76
2022/11/29 00:43:32;;;;;;;47.50;19.90;;;;;;;;;;1044160;28;20483;-76
2022/11/29 00:44:03;;;;;;;54.60;20.63;;;;;;;;;;1045887;28;20021;-76
2022/11/29 00:44:33;;;;;;;54.90;21.10;;;;;;;;;;1044659;28;20113;-76
2022/11/29 00:45:04;;;;;;;51.47;20.13;;;;;;;;;;1041561;28;20022;-76
2022/11/29 00:45:35;;;;;;;47.38;20.70;;;;;;;;;;1037640;28;20036;-76
2022/11/29 00:46:06;;;;;;;49.45;19.52;;;;;;;;;;1035303;28;20409;-76
2022/11/29 00:46:37;;;;;;;57.28;19.63;;;;;;;;;;1042034;28;20033;-76
2022/11/29 00:47:08;;;;;;;56.10;22.38;;;;;;;;;;1044154;28;20086;-76
2022/11/29 00:47:38;;;;;;;48.00;21.08;;;;;;;;;;1048765;28;20029;-76
2022/11/29 00:48:09;;;;;;;46.42;18.85;;;;;;;;;;1047750;28;20536;-76
2022/11/29 00:48:40;;;;;;;55.10;21.88;;;;;;;;;;1043910;28;20017;-76
2022/11/29 00:49:10;;;;;;;49.65;20.33;;;;;;;;;;1041646;28;20032;-76
2022/11/29 00:49:41;;;;;;;51.90;19.60;;;;;;;;;;1047924;28;20021;-76
2022/11/29 00:50:11;;;;;;;53.60;18.33;;;;;;;;;;1047602;28;20023;-76
2022/11/29 00:50:42;;;;;;;50.05;19.83;;;;;;;;;;1043763;28;20048;-76
2022/11/29 00:51:12;;;;;;;50.88;18.65;;;;;;;;;;1040606;28;20053;-76
2022/11/29 00:51:43;;;;;;;43.35;19.73;;;;;;;;;;1041803;28;20020;-76
2022/11/29 00:52:13;;;;;;;40.60;18.33;;;;;;;;;;1043013;28;20028;-76
2022/11/29 00:52:44;;;;;;;56.55;20.92;;;;;;;;;;1043304;28;20077;-76
2022/11/29 00:53:15;;;;;;;51.40;19.85;;;;;;;;;;1040800;28;20124;-76
2022/11/29 00:53:45;;;;;;;51.10;19.15;;;;;;;;;;1037427;28;20029;-76
2022/11/29 00:54:16;;;;;;;49.47;21.73;;;;;;;;;;1038460;28;20026;-76
2022/11/29 00:54:47;;;;;;;57.40;20.35;;;;;;;;;;1044453;28;20033;-76
2022/11/29 00:55:17;;;;;;;39.45;17.35;;;;;;;;;;1042678;28;20451;-76
2022/11/29 00:55:48;;;;;;;46.90;17.55;;;;;;;;;;1039199;28;20423;-76
2022/11/29 00:56:19;;;;;;;51.25;21.58;;;;;;;;;;1040155;28;20033;-76
2022/11/29 00:56:49;;;;;;;50.38;20.08;;;;;;;;;;1039760;28;20048;-76
2022/11/29 00:57:20;;;;;;;57.00;22.85;;;;;;;;;;1046052;28;20017;-76
2022/11/29 00:57:51;;;;;;;53.97;21.17;;;;;;;;;;1046058;28;20055;-76
2022/11/29 00:58:21;;;;;;;52.53;24.25;;;;;;;;;;1046840;28;20024;-76
2022/11/29 00:58:52;;;;;;;52.88;22.42;;;;;;;;;;1046208;28;20048;-76
2022/11/29 00:59:22;;;;;;;53.42;20.33;;;;;;;;;;1044213;28;20040;-76
2022/11/29 00:59:53;;;;;;;59.65;24.30;;;;;;;;;;1048004;28;20005;-76
2022/11/29 01:00:24;;;;;;;53.75;24.23;;;;;;;;;;1038993;28;20033;-76
2022/11/29 01:00:54;;;;;;;51.72;20.08;;;;;;;;;;1039488;28;20518;-76
2022/11/29 01:01:25;;;;;;;53.30;22.15;;;;;;;;;;1039093;28;20052;-76
2022/11/29 01:01:56;;;;;;;59.25;24.00;;;;;;;;;;1039560;28;20025;-76
2022/11/29 01:02:26;;;;;;;51.10;23.00;;;;;;;;;;1043780;28;20071;-76
2022/11/29 01:02:57;;;;;;;49.95;21.13;;;;;;;;;;1047046;28;20461;-76
2022/11/29 01:03:27;;;;;;;51.95;22.75;;;;;;;;;;1046035;28;20085;-76
2022/11/29 01:03:59;;;;;;;55.53;22.50;;;;;;;;;;1044277;28;20507;-76
2022/11/29 01:04:29;;;;;;;52.35;20.38;;;;;;;;;;1044844;28;20056;-76
2022/11/29 01:05:00;;;;;;;51.40;23.00;;;;;;;;;;1041320;28;20021;-76
2022/11/29 01:05:31;;;;;;;47.38;22.48;;;;;;;;;;1042564;28;20033;-76
2022/11/29 01:06:11;;;;;;;50.92;23.20;;;;;;;;;;1039388;28;20535;-76
2022/11/29 01:06:42;;;;;;;62.92;25.80;;;;;;;;;;1044130;28;19997;-76
2022/11/29 01:07:12;;;;;;;66.38;23.05;;;;;;;;;;1039512;28;20370;-76
2022/11/29 01:07:43;;;;;;;70.03;30.30;;;;;;;;;;1046073;28;20073;-76
2022/11/29 01:08:14;;;;;;;55.45;25.02;;;;;;;;;;1045559;28;20048;-76
2022/11/29 01:08:46;;;;;;;67.82;22.15;;;;;;;;;;1043052;28;20006;-76
2022/11/29 01:09:17;;;;;;;66.85;25.80;;;;;;;;;;1039551;28;20030;-77
2022/11/29 01:09:47;;;;;;;50.50;22.00;;;;;;;;;;1042622;28;20104;-77
2022/11/29 01:10:18;;;;;;;54.80;22.33;;;;;;;;;;1041444;28;20121;-77
2022/11/29 01:10:49;;;;;;;69.20;24.83;;;;;;;;;;1045546;28;20523;-77
2022/11/29 01:11:23;;;;;;;55.03;23.40;;;;;;;;;;1017694;28;20017;-77
2022/11/29 01:11:54;;;;;;;69.20;23.90;;;;;;;;;;1043521;28;20025;-77
2022/11/29 01:12:24;;;;;;;52.47;22.95;;;;;;;;;;1045595;28;20491;-77
2022/11/29 01:12:55;;;;;;;59.28;23.52;;;;;;;;;;1044475;28;20014;-77
2022/11/29 01:13:26;;;;;;;78.85;27.35;;;;;;;;;;1042383;28;20014;-77
2022/11/29 01:13:58;;;;;;;84.07;27.58;;;;;;;;;;1039248;28;20488;-77
2022/11/29 01:14:29;;;;;;;66.88;26.35;;;;;;;;;;1039206;28;20025;-77
2022/11/29 01:15:00;;;;;;;72.72;24.17;;;;;;;;;;1046086;28;20029;-77
2022/11/29 01:16:11;;;;;;;82.82;30.42;;;;;;;;;;1073758;22;20053;-81
2022/11/29 01:16:42;;;;;;;77.00;26.77;;;;;;;;;;1045425;23;20379;-76
2022/11/29 01:17:13;;;;;;;75.80;27.33;;;;;;;;;;1043051;28;20097;-77
2022/11/29 01:17:45;;;;;;;69.75;24.05;;;;;;;;;;1037186;28;20516;-77
2022/11/29 01:18:15;;;;;;;67.78;27.65;;;;;;;;;;1037826;28;20029;-77
2022/11/29 01:18:46;;;;;;;71.90;28.15;;;;;;;;;;1077667;22;20072;-78
2022/11/29 01:19:17;;;;;;;64.18;22.98;;;;;;;;;;1035234;28;20066;-79
2022/11/29 01:19:47;;;;;;;75.65;25.50;;;;;;;;;;1035435;28;20105;-79
2022/11/29 01:20:18;;;;;;;62.90;24.73;;;;;;;;;;1031765;28;20053;-79
2022/11/29 01:21:05;;;;;;;77.82;27.00;;;;;;;;;;1027373;28;20026;-79
2022/11/29 01:21:36;;;;;;;81.55;24.52;;;;;;;;;;1039041;23;20023;-76
2022/11/29 01:22:07;;;;;;;62.35;23.30;;;;;;;;;;1035628;28;20018;-76
2022/11/29 01:22:38;;;;;;;57.83;25.75;;;;;;;;;;1039905;28;20026;-76
2022/11/29 01:23:08;;;;;;;68.82;24.50;;;;;;;;;;1046262;28;20001;-76
2022/11/29 01:23:40;;;;;;;69.00;25.52;;;;;;;;;;1041751;28;20023;-76
2022/11/29 01:24:10;;;;;;;63.22;25.45;;;;;;;;;;1040991;28;20068;-76
2022/11/29 01:24:41;;;;;;;70.55;31.58;;;;;;;;;;1041777;28;20594;-78
2022/11/29 01:25:12;;;;;;;57.85;26.75;;;;;;;;;;1040346;28;20021;-78
2022/11/29 01:25:42;;;;;;;65.38;31.35;;;;;;;;;;1038239;28;20017;-77
2022/11/29 01:26:15;;;;;;;79.80;29.55;;;;;;;;;;1037997;28;20056;-76
2022/11/29 01:26:46;;;;;;;63.45;28.73;;;;;;;;;;1019210;28;20013;-78
2022/11/29 01:27:16;;;;;;;65.40;28.05;;;;;;;;;;1038314;28;20030;-78
2022/11/29 01:27:47;;;;;;;72.05;27.65;;;;;;;;;;1031788;28;20073;-78
2022/11/29 01:28:17;;;;;;;68.97;26.92;;;;;;;;;;1034471;28;20040;-78
2022/11/29 01:28:49;;;;;;;79.85;26.80;;;;;;;;;;1030388;28;20061;-78
2022/11/29 01:29:19;;;;;;;72.05;30.52;;;;;;;;;;1031340;28;20022;-78
2022/11/29 01:29:50;;;;;;;65.75;25.75;;;;;;;;;;1032238;28;20076;-78
2022/11/29 01:30:21;;;;;;;59.22;24.05;;;;;;;;;;1031915;28;20079;-77
2022/11/29 01:30:51;;;;;;;59.17;26.52;;;;;;;;;;1033576;28;20079;-78
2022/11/29 01:31:23;;;;;;;75.35;28.23;;;;;;;;;;1037443;28;20021;-78
2022/11/29 01:31:54;;;;;;;62.38;25.73;;;;;;;;;;1040678;28;20045;-78
2022/11/29 01:32:25;;;;;;;67.07;25.75;;;;;;;;;;1035171;28;20034;-78
2022/11/29 01:32:55;;;;;;;62.13;25.73;;;;;;;;;;1032391;28;20194;-78
2022/11/29 01:33:26;;;;;;;61.83;25.65;;;;;;;;;;1033496;28;20533;-77
2022/11/29 01:33:59;;;;;;;73.03;28.33;;;;;;;;;;1037200;28;20026;-77
2022/11/29 01:34:29;;;;;;;67.53;25.08;;;;;;;;;;1036946;28;20025;-77
2022/11/29 01:35:00;;;;;;;57.55;23.88;;;;;;;;;;1045891;28;20028;-77
2022/11/29 01:35:31;;;;;;;67.45;25.27;;;;;;;;;;1042629;28;20030;-77
2022/11/29 01:36:02;;;;;;;71.55;28.65;;;;;;;;;;1036695;28;20018;-77
2022/11/29 01:36:32;;;;;;;61.03;23.63;;;;;;;;;;1037268;28;20073;-77
2022/11/29 01:37:03;;;;;;;85.65;26.27;;;;;;;;;;1036857;28;20080;-77
2022/11/29 01:37:34;;;;;;;65.10;25.17;;;;;;;;;;1037203;28;20497;-78
2022/11/29 01:38:05;;;;;;;74.25;30.15;;;;;;;;;;1039052;28;20081;-77
2022/11/29 01:38:36;;;;;;;70.32;26.90;;;;;;;;;;1035728;28;20030;-77
2022/11/29 01:39:07;;;;;;;80.82;27.63;;;;;;;;;;1037395;28;20477;-77
2022/11/29 01:39:38;;;;;;;59.55;24.73;;;;;;;;;;1035091;28;20022;-76
2022/11/29 01:40:08;;;;;;;61.55;24.05;;;;;;;;;;1037139;28;20801;-76
2022/11/29 01:40:39;;;;;;;69.05;27.25;;;;;;;;;;1041266;28;20057;-76
2022/11/29 01:41:20;;;;;;;67.50;23.58;;;;;;;;;;1040006;28;20041;-77
2022/11/29 01:41:52;;;;;;;79.68;27.88;;;;;;;;;;1036736;28;20049;-76
2022/11/29 01:42:22;;;;;;;67.63;23.80;;;;;;;;;;1037628;28;20030;-75
2022/11/29 01:42:53;;;;;;;64.18;25.60;;;;;;;;;;1034684;28;20045;-76
2022/11/29 01:43:24;;;;;;;59.22;24.92;;;;;;;;;;1036152;28;20036;-76
2022/11/29 01:44:09;;;;;;;55.42;22.92;;;;;;;;;;1037563;28;20021;-81
2022/11/29 01:44:45;;;;;;;65.65;25.58;;;;;;;;;;1040289;28;20006;-78
2022/11/29 01:45:23;;;;;;;67.82;28.10;;;;;;;;;;1035085;28;20093;-79
2022/11/29 01:45:54;;;;;;;67.90;27.05;;;;;;;;;;1042332;28;20116;-79
2022/11/29 01:46:25;;;;;;;63.75;22.27;;;;;;;;;;1041357;28;20033;-81
2022/11/29 01:46:56;;;;;;;71.18;24.98;;;;;;;;;;1049559;22;20037;-78
2022/11/29 01:47:27;;;;;;;61.05;22.88;;;;;;;;;;1043545;28;20029;-78
2022/11/29 01:47:58;;;;;;;73.10;25.38;;;;;;;;;;1042339;28;20079;-78
2022/11/29 01:48:31;;;;;;;64.40;23.85;;;;;;;;;;1044229;28;20055;-78
2022/11/29 01:49:21;;;;;;;62.67;22.92;;;;;;;;;;1043138;28;20052;-78
2022/11/29 01:49:52;;;;;;;58.30;21.52;;;;;;;;;;1038589;28;20026;-79
2022/11/29 01:50:23;;;;;;;65.10;22.50;;;;;;;;;;1038579;28;20064;-79
2022/11/29 01:50:54;;;;;;;63.05;23.98;;;;;;;;;;1034431;28;20120;-79
2022/11/29 01:51:26;;;;;;;74.88;27.52;;;;;;;;;;1036468;28;20034;-79
2022/11/29 01:51:59;;;;;;;69.65;28.90;;;;;;;;;;1035924;28;20010;-78
2022/11/29 01:52:31;;;;;;;66.35;25.65;;;;;;;;;;1038836;28;20022;-80
2022/11/29 01:53:02;;;;;;;55.83;24.33;;;;;;;;;;1040139;28;20018;-80
2022/11/29 01:53:32;;;;;;;70.40;29.08;;;;;;;;;;1036547;28;20021;-80
2022/11/29 01:54:03;;;;;;;79.53;34.20;;;;;;;;;;1047452;22;20068;-79
2022/11/29 01:54:36;;;;;;;80.70;31.33;;;;;;;;;;1037786;28;20033;-81
2022/11/29 01:55:10;;;;;;;65.50;26.17;;;;;;;;;;1035523;28;20022;-80
2022/11/29 01:55:45;;;;;;;76.85;26.20;;;;;;;;;;1034211;28;20026;-79
2022/11/29 01:56:18;;;;;;;65.88;25.65;;;;;;;;;;1033959;28;20446;-79
2022/11/29 01:56:49;;;;;;;67.75;23.67;;;;;;;;;;1036691;28;20021;-78
2022/11/29 01:57:20;;;;;;;78.45;27.70;;;;;;;;;;1035584;28;20029;-78
2022/11/29 01:57:51;;;;;;;58.60;22.75;;;;;;;;;;1034555;28;20017;-78
2022/11/29 01:58:22;;;;;;;62.08;23.02;;;;;;;;;;1035341;28;20529;-78
2022/11/29 01:58:53;;;;;;;75.90;28.35;;;;;;;;;;1033406;28;20030;-78
2022/11/29 01:59:26;;;;;;;86.90;26.45;;;;;;;;;;1033541;28;20022;-78
2022/11/29 01:59:59;;;;;;;73.80;25.13;;;;;;;;;;1034333;28;20018;-80
2022/11/29 02:00:31;;;;;;;66.55;25.20;;;;;;;;;;1035409;28;20955;-79
2022/11/29 02:01:02;;;;;;;68.95;25.98;;;;;;;;;;1034689;28;20033;-80
2022/11/29 02:01:34;;;;;;;62.70;26.10;;;;;;;;;;1030788;28;20022;-82
2022/11/29 02:02:16;;;;;;;88.07;24.80;;;;;;;;;;1028899;28;20032;-82
2022/11/29 02:02:58;;;;;;;75.40;25.52;;;;;;;;;;1028607;28;20066;-80
2022/11/29 02:03:29;;;;;;;78.90;26.38;;;;;;;;;;1035205;28;20033;-80
2022/11/29 02:03:59;;;;;;;85.28;29.63;;;;;;;;;;1038969;28;20070;-79
2022/11/29 02:04:31;;;;;;;67.47;24.15;;;;;;;;;;1031197;28;20060;-79
2022/11/29 02:05:02;;;;;;;80.88;23.80;;;;;;;;;;1032459;28;20057;-78
2022/11/29 02:05:33;;;;;;;75.65;27.40;;;;;;;;;;1033565;28;20019;-78
2022/11/29 02:06:05;;;;;;;74.50;28.40;;;;;;;;;;1035066;28;20025;-80
2022/11/29 02:06:43;;;;;;;68.55;29.15;;;;;;;;;;1038661;28;20005;-80
2022/11/29 02:07:14;;;;;;;85.72;29.17;;;;;;;;;;1033323;28;20018;-80
2022/11/29 02:07:47;;;;;;;81.20;26.45;;;;;;;;;;1033266;28;20034;-79
2022/11/29 02:08:26;;;;;;;88.63;30.45;;;;;;;;;;1032425;28;20054;-78
2022/11/29 02:08:56;;;;;;;83.38;29.33;;;;;;;;;;1033518;28;20022;-79
2022/11/29 02:09:27;;;;;;;69.50;26.25;;;;;;;;;;1034714;28;20505;-80
2022/11/29 02:09:58;;;;;;;62.83;25.95;;;;;;;;;;1038282;28;20589;-80
2022/11/29 02:10:39;;;;;;;77.93;27.88;;;;;;;;;;1038477;28;20465;-80
2022/11/29 02:11:18;;;;;;;67.40;25.17;;;;;;;;;;1036672;28;20026;-81
2022/11/29 02:11:52;;;;;;;64.40;26.17;;;;;;;;;;1037532;28;20022;-81
2022/11/29 02:12:43;;;;;;;74.60;26.58;;;;;;;;;;1034304;28;20245;-80
2022/11/29 02:13:22;;;;;;;66.07;25.88;;;;;;;;;;1035215;28;20022;-80
2022/11/29 02:13:59;;;;;;;84.75;24.75;;;;;;;;;;1033883;28;20103;-80
2022/11/29 02:14:36;;;;;;;72.50;24.10;;;;;;;;;;1035106;28;20036;-79
2022/11/29 02:15:12;;;;;;;80.65;26.55;;;;;;;;;;1036166;28;20032;-79
2022/11/29 02:15:49;;;;;;;80.05;27.15;;;;;;;;;;1035774;28;20032;-79
2022/11/29 02:16:24;;;;;;;60.67;25.88;;;;;;;;;;1035732;28;20036;-80
2022/11/29 02:17:03;;;;;;;75.88;26.58;;;;;;;;;;1034994;28;20623;-79
2022/11/29 02:17:49;;;;;;;67.75;21.45;;;;;;;;;;1031684;28;20037;-79
2022/11/29 02:18:26;;;;;;;69.15;23.27;;;;;;;;;;1031137;28;20057;-79
2022/11/29 02:19:06;;;;;;;70.07;24.90;;;;;;;;;;1030255;28;20426;-81
2022/11/29 02:19:46;;;;;;;72.32;25.85;;;;;;;;;;1037507;28;20027;-80
2022/11/29 02:20:35;;;;;;;69.47;26.92;;;;;;;;;;1032961;28;20018;-80
2022/11/29 02:21:39;;;;;;;75.10;25.50;;;;;;;;;;1052905;23;20060;-79
2022/11/29 02:22:17;;;;;;;70.15;25.00;;;;;;;;;;1037510;28;20975;-81
2022/11/29 02:23:06;;;;;;;78.75;29.30;;;;;;;;;;1040269;28;20032;-80
2022/11/29 02:23:48;;;;;;;66.30;25.75;;;;;;;;;;1039361;28;20073;-80
2022/11/29 02:24:27;;;;;;;74.35;25.75;;;;;;;;;;1038704;28;20044;-80
2022/11/29 02:25:06;;;;;;;77.90;26.08;;;;;;;;;;1037142;28;20022;-80
2022/11/29 02:25:42;;;;;;;78.10;24.70;;;;;;;;;;1037009;28;20100;-79
2022/11/29 02:26:20;;;;;;;73.97;26.63;;;;;;;;;;1038633;28;20021;-80
2022/11/29 02:27:00;;;;;;;77.88;26.23;;;;;;;;;;1037168;28;20028;-80
2022/11/29 02:27:49;;;;;;;64.88;25.98;;;;;;;;;;1040157;28;20096;-79
2022/11/29 02:28:20;;;;;;;66.35;24.55;;;;;;;;;;1033901;28;20054;-80
2022/11/29 02:29:14;;;;;;;69.70;27.95;;;;;;;;;;1035832;28;20034;-80
2022/11/29 02:29:59;;;;;;;75.95;23.13;;;;;;;;;;1026692;28;20023;-81
2022/11/29 02:30:49;;;;;;;75.00;24.25;;;;;;;;;;1034917;28;20049;-80
2022/11/29 02:31:22;;;;;;;86.95;29.30;;;;;;;;;;1037192;28;20057;-80
2022/11/29 02:32:11;;;;;;;68.18;25.23;;;;;;;;;;1039635;28;20024;-80
2022/11/29 02:32:45;;;;;;;67.72;23.95;;;;;;;;;;1041926;28;20021;-80
2022/11/29 02:33:51;;;;;;;58.30;24.80;;;;;;;;;;1034065;28;19956;-80
2022/11/29 02:34:40;;;;;;;70.00;25.30;;;;;;;;;;1034081;28;20432;-80
2022/11/29 02:35:29;;;;;;;70.45;25.13;;;;;;;;;;1035670;28;20230;-79
2022/11/29 02:36:14;;;;;;;62.30;21.65;;;;;;;;;;1034432;28;20030;-80
2022/11/29 02:36:44;;;;;;;82.68;22.63;;;;;;;;;;1037845;28;20137;-77
2022/11/29 02:37:40;;;;;;;67.68;26.42;;;;;;;;;;1038506;28;20097;-77
2022/11/29 02:38:11;;;;;;;67.50;22.73;;;;;;;;;;1036971;28;20018;-79
2022/11/29 02:38:42;;;;;;;66.80;23.20;;;;;;;;;;1038318;28;20052;-79
2022/11/29 02:39:31;;;;;;;62.85;23.58;;;;;;;;;;1034719;28;20057;-79
2022/11/29 02:40:10;;;;;;;77.88;26.65;;;;;;;;;;1033223;28;20144;-79
2022/11/29 02:40:55;;;;;;;79.05;27.25;;;;;;;;;;1035422;28;20089;-79
2022/11/29 02:41:38;;;;;;;69.40;24.45;;;;;;;;;;1039607;28;20385;-79
2022/11/29 02:42:15;;;;;;;75.95;27.40;;;;;;;;;;1037780;28;20018;-79
2022/11/29 02:42:51;;;;;;;67.18;26.88;;;;;;;;;;1034465;28;20026;-78
2022/11/29 02:43:29;;;;;;;86.90;27.50;;;;;;;;;;1034713;28;20231;-79
2022/11/29 02:44:18;;;;;;;66.22;25.38;;;;;;;;;;1039702;28;20021;-79
2022/11/29 02:44:48;;;;;;;78.80;26.88;;;;;;;;;;1041841;28;20036;-79
2022/11/29 02:45:32;;;;;;;88.25;28.20;;;;;;;;;;1038863;28;20041;-78
2022/11/29 02:46:02;;;;;;;89.50;28.40;;;;;;;;;;1040353;28;20654;-78
2022/11/29 02:47:02;;;;;;;72.53;26.17;;;;;;;;;;1036390;28;20032;-78
2022/11/29 02:47:48;;;;;;;93.07;28.05;;;;;;;;;;1022016;29;20026;-78
2022/11/29 02:48:28;;;;;;;80.30;28.00;;;;;;;;;;1037015;28;20022;-79
2022/11/29 02:48:59;;;;;;;78.53;25.92;;;;;;;;;;1032679;28;20054;-79
2022/11/29 02:49:29;;;;;;;73.00;27.70;;;;;;;;;;1031043;28;20052;-79
2022/11/29 02:50:13;;;;;;;65.85;25.98;;;;;;;;;;1029830;28;20030;-79
2022/11/29 02:50:43;;;;;;;77.25;26.50;;;;;;;;;;1034200;28;20013;-79
2022/11/29 02:51:32;;;;;;;68.72;26.80;;;;;;;;;;1039464;28;20521;-79
2022/11/29 02:52:17;;;;;;;70.47;24.42;;;;;;;;;;1034089;28;20018;-79
2022/11/29 02:52:53;;;;;;;63.10;24.65;;;;;;;;;;1035653;28;20495;-80
2022/11/29 02:53:47;;;;;;;63.05;23.23;;;;;;;;;;1036821;28;20108;-80
2022/11/29 02:54:19;;;;;;;63.22;25.83;;;;;;;;;;1025927;28;20327;-77
2022/11/29 02:55:02;;;;;;;74.07;26.02;;;;;;;;;;1032401;28;20167;-79
2022/11/29 02:55:44;;;;;;;65.53;27.85;;;;;;;;;;1034675;28;20026;-79
2022/11/29 02:56:24;;;;;;;70.40;26.95;;;;;;;;;;1033167;28;20014;-79
2022/11/29 02:56:57;;;;;;;82.05;29.80;;;;;;;;;;1034145;28;20037;-79
2022/11/29 02:57:37;;;;;;;82.07;28.20;;;;;;;;;;1036839;28;20029;-79
2022/11/29 02:58:08;;;;;;;;;;;;;;;;;;1035333;28;20026;-79
2022/11/29 02:58:38;;;;;;;93.00;38.22;;;;;;;;;;1028273;28;19920;-79
2022/11/29 02:59:11;;;;;;;84.20;35.30;;;;;;;;;;1032392;28;20037;-79
2022/11/29 02:59:42;;;;;;;102.03;38.88;;;;;;;;;;1030711;28;20463;-79
2022/11/29 03:00:14;;;;;;;91.10;38.63;;;;;;;;;;1033581;28;20084;-79
2022/11/29 03:00:50;;;;;;;84.78;38.20;;;;;;;;;;1036553;28;20026;-79
2022/11/29 03:01:40;;;;;;;95.25;38.20;;;;;;;;;;1035607;28;20041;-80
2022/11/29 03:02:11;;;;;;;;;;;;;;;;;;1044627;28;20018;-78
2022/11/29 03:02:48;;;;;;;83.18;31.63;;;;;;;;;;1039640;28;20331;-79
2022/11/29 03:03:51;;;;;;;79.25;32.33;;;;;;;;;;1037771;28;20802;-80
2022/11/29 03:04:45;;;;;;;86.88;28.90;;;;;;;;;;1021405;29;20035;-79
2022/11/29 03:05:16;;;;;;;87.75;31.88;;;;;;;;;;1027135;28;20015;-78
2022/11/29 03:06:01;;;;;;;61.30;29.55;;;;;;;;;;1035629;28;20052;-78
2022/11/29 03:06:41;;;;;;;71.65;27.50;;;;;;;;;;1032924;28;20022;-78
2022/11/29 03:07:18;;;;;;;82.13;27.92;;;;;;;;;;1037318;28;20516;-79
2022/11/29 03:07:54;;;;;;;81.55;27.10;;;;;;;;;;1042766;28;20497;-78
2022/11/29 03:08:34;;;;;;;77.43;27.88;;;;;;;;;;1037422;28;20097;-79
2022/11/29 03:09:14;;;;;;;80.13;31.55;;;;;;;;;;1038068;28;20493;-79
2022/11/29 03:09:56;;;;;;;93.57;31.27;;;;;;;;;;1038869;28;20036;-79
2022/11/29 03:10:27;;;;;;;64.63;28.95;;;;;;;;;;1036396;28;20085;-80
2022/11/29 03:11:01;;;;;;;79.78;33.63;;;;;;;;;;1034611;28;20022;-79
2022/11/29 03:11:54;;;;;;;94.68;37.00;;;;;;;;;;1036056;28;20034;-79
2022/11/29 03:12:31;;;;;;;93.20;33.45;;;;;;;;;;1035202;28;20044;-79
2022/11/29 03:13:05;;;;;;;86.65;33.38;;;;;;;;;;1037737;28;20046;-78
2022/11/29 03:13:54;;;;;;;93.45;32.85;;;;;;;;;;1039043;28;20639;-79
2022/11/29 03:14:38;;;;;;;99.90;32.20;;;;;;;;;;1036702;28;20018;-80
2022/11/29 03:15:18;;;;;;;75.82;28.02;;;;;;;;;;1035008;28;20030;-79
2022/11/29 03:15:55;;;;;;;79.28;27.38;;;;;;;;;;1033537;28;20089;-78
2022/11/29 03:16:42;;;;;;;87.20;33.17;;;;;;;;;;1025856;28;20125;-78
2022/11/29 03:17:39;;;;;;;86.22;29.95;;;;;;;;;;1025436;28;20058;-78
2022/11/29 03:18:13;;;;;;;86.85;27.77;;;;;;;;;;1021605;29;20037;-79
2022/11/29 03:19:17;;;;;;;75.13;25.52;;;;;;;;;;1022441;28;20410;-78
2022/11/29 03:19:47;;;;;;;88.63;32.25;;;;;;;;;;1029597;28;20089;-79
2022/11/29 03:20:37;;;;;;;94.78;31.45;;;;;;;;;;1030064;28;20026;-79
2022/11/29 03:21:07;;;;;;;78.05;28.27;;;;;;;;;;1033533;28;20555;-78